createdAt,value
2023-02-28T00:00:38.929Z,6.79
2023-02-28T00:03:05.948Z,6.79
2023-02-28T00:05:33.115Z,6.79
2023-02-28T00:07:59.743Z,6.79
2023-02-28T00:10:29.481Z,6.79
2023-02-28T00:13:00.710Z,6.79
2023-02-28T00:15:27.982Z,6.81
2023-02-28T00:17:54.766Z,6.81
2023-02-28T00:20:21.888Z,6.82
2023-02-28T00:22:53.159Z,6.83
2023-02-28T00:25:23.275Z,6.85
2023-02-28T00:27:50.036Z,6.86
2023-02-28T00:30:22.802Z,6.86
2023-02-28T00:32:50.737Z,6.86
2023-02-28T00:35:19.288Z,6.86
2023-02-28T00:37:45.896Z,6.86
2023-02-28T00:40:13.353Z,6.86
2023-02-28T00:42:40.888Z,6.86
2023-02-28T00:45:09.315Z,6.88
2023-02-28T00:47:36.773Z,6.92
2023-02-28T00:50:04.327Z,6.93
2023-02-28T00:52:31.055Z,6.95
2023-02-28T00:54:57.788Z,6.95
2023-02-28T00:57:24.884Z,6.94
2023-02-28T00:59:51.488Z,6.96
2023-02-28T01:02:19.085Z,6.95
2023-02-28T01:04:45.918Z,6.96
2023-02-28T01:07:13.122Z,6.95
2023-02-28T01:09:40.214Z,6.96
2023-02-28T01:12:08.296Z,6.96
2023-02-28T01:14:35.880Z,6.96
2023-02-28T01:17:02.794Z,6.95
2023-02-28T01:19:29.484Z,6.95
2023-02-28T01:21:56.113Z,6.95
2023-02-28T01:24:22.706Z,6.95
2023-02-28T01:26:49.390Z,6.95
2023-02-28T01:29:16.530Z,6.95
2023-02-28T01:31:43.148Z,6.95
2023-02-28T01:34:09.771Z,6.95
2023-02-28T01:36:37.320Z,6.95
2023-02-28T01:39:04.210Z,6.95
2023-02-28T01:41:33.682Z,6.96
2023-02-28T01:44:28.030Z,6.97
2023-02-28T01:46:54.619Z,6.95
2023-02-28T01:49:21.549Z,6.95
2023-02-28T01:51:51.991Z,6.95
2023-02-28T01:54:28.113Z,6.95
2023-02-28T01:57:00.158Z,6.96
2023-02-28T01:59:34.712Z,6.97
2023-02-28T02:02:02.859Z,6.97
2023-02-28T02:04:37.114Z,6.97
2023-02-28T02:07:04.979Z,6.98
2023-02-28T02:09:31.646Z,6.98
2023-02-28T02:12:00.403Z,6.98
2023-02-28T02:14:33.415Z,6.98
2023-02-28T02:17:39.195Z,6.99
2023-02-28T02:20:18.010Z,6.99
2023-02-28T02:23:09.224Z,6.98
2023-02-28T02:25:39.852Z,6.97
2023-02-28T02:28:37.596Z,6.96
2023-02-28T02:31:37.613Z,6.95
2023-02-28T02:34:23.007Z,6.94
2023-02-28T02:37:14.995Z,6.95
2023-02-28T02:40:12.785Z,6.93
2023-02-28T02:43:02.194Z,6.94
2023-02-28T02:45:47.462Z,6.94
2023-02-28T02:48:21.787Z,6.94
2023-02-28T02:50:56.265Z,6.92
2023-02-28T02:53:28.933Z,6.91
2023-02-28T02:55:57.333Z,6.91
2023-02-28T02:58:32.815Z,6.91
2023-02-28T03:01:03.180Z,6.91
2023-02-28T03:03:32.088Z,6.91
2023-02-28T03:06:01.162Z,6.91
2023-02-28T03:08:30.497Z,6.89
2023-02-28T03:11:00.550Z,6.88
2023-02-28T03:14:01.082Z,6.88
2023-02-28T03:16:33.968Z,6.86
2023-02-28T03:19:38.035Z,6.84
2023-02-28T03:22:20.838Z,6.83
2023-02-28T03:25:21.815Z,6.82
2023-02-28T03:28:20.800Z,6.81
2023-02-28T03:30:47.404Z,6.80
2023-02-28T03:33:14.099Z,6.79
2023-02-28T03:35:50.970Z,6.80
2023-02-28T03:38:34.235Z,6.78
2023-02-28T03:41:12.796Z,6.79
2023-02-28T03:43:44.033Z,6.79
2023-02-28T03:46:14.025Z,6.78
2023-02-28T03:48:57.549Z,6.78
2023-02-28T03:51:25.568Z,6.79
2023-02-28T03:53:57.775Z,6.80
2023-02-28T03:56:37.997Z,6.79
2023-02-28T03:59:22.526Z,6.80
2023-02-28T04:01:50.490Z,6.79
2023-02-28T04:04:18.520Z,6.79
2023-02-28T04:06:46.174Z,6.80
2023-02-28T04:09:15.833Z,6.80
2023-02-28T04:11:50.282Z,6.81
2023-02-28T04:14:16.877Z,6.81
2023-02-28T04:16:43.652Z,6.81
2023-02-28T04:19:12.028Z,6.81
2023-02-28T04:21:41.429Z,6.81
2023-02-28T04:24:15.437Z,6.81
2023-02-28T04:26:44.733Z,6.79
2023-02-28T04:29:13.237Z,6.79
2023-02-28T04:31:40.314Z,6.79
2023-02-28T04:34:07.223Z,6.79
2023-02-28T04:36:33.876Z,6.80
2023-02-28T04:39:00.787Z,6.80
2023-02-28T04:41:29.652Z,6.79
2023-02-28T04:43:58.486Z,6.80
2023-02-28T04:46:25.327Z,6.80
2023-02-28T04:48:51.956Z,6.80
2023-02-28T04:51:20.728Z,6.80
2023-02-28T04:53:49.267Z,6.79
2023-02-28T04:56:18.108Z,6.78
2023-02-28T04:58:45.437Z,6.69
2023-02-28T05:01:23.274Z,6.58
2023-02-28T05:03:50.554Z,6.51
2023-02-28T05:06:17.981Z,6.46
2023-02-28T05:08:44.579Z,6.40
2023-02-28T05:11:20.295Z,6.36
2023-02-28T05:13:47.240Z,6.30
2023-02-28T05:16:14.283Z,6.25
2023-02-28T05:18:41.806Z,6.21
2023-02-28T05:21:27.569Z,6.13
2023-02-28T05:23:55.983Z,6.13
2023-02-28T05:26:23.467Z,6.12
2023-02-28T05:28:50.082Z,6.13
2023-02-28T05:31:16.797Z,6.15
2023-02-28T05:33:44.593Z,6.17
2023-02-28T05:36:11.454Z,6.18
2023-02-28T05:38:39.002Z,6.17
2023-02-28T05:41:10.117Z,6.17
2023-02-28T05:43:38.092Z,6.17
2023-02-28T05:46:06.726Z,6.17
2023-02-28T05:48:35.839Z,6.15
2023-02-28T05:51:03.616Z,6.15
2023-02-28T05:53:30.947Z,6.17
2023-02-28T05:55:57.956Z,6.17
2023-02-28T05:58:26.630Z,6.19
2023-02-28T06:00:53.240Z,6.19
2023-02-28T06:03:19.889Z,6.20
2023-02-28T06:05:46.543Z,6.21
2023-02-28T06:08:13.145Z,6.19
2023-02-28T06:10:39.746Z,6.19
2023-02-28T06:13:07.080Z,6.16
2023-02-28T06:15:33.795Z,6.13
2023-02-28T06:18:00.861Z,6.14
2023-02-28T06:20:31.726Z,6.16
2023-02-28T06:23:01.798Z,6.17
2023-02-28T06:25:28.879Z,6.16
2023-02-28T06:27:56.561Z,6.13
2023-02-28T06:30:27.793Z,6.11
2023-02-28T06:32:55.703Z,6.05
2023-02-28T06:35:23.625Z,6.06
2023-02-28T06:37:50.299Z,6.04
2023-02-28T06:40:17.148Z,6.01
2023-02-28T06:42:43.870Z,6.02
2023-02-28T06:45:11.754Z,6.01
2023-02-28T06:47:42.427Z,6.03
2023-02-28T06:50:11.676Z,6.03
2023-02-28T06:52:38.639Z,6.04
2023-02-28T06:55:08.166Z,6.03
2023-02-28T06:57:36.895Z,6.01
2023-02-28T07:00:08.729Z,5.99
2023-02-28T07:02:37.023Z,5.97
2023-02-28T07:05:07.592Z,5.94
2023-02-28T07:07:35.271Z,5.91
2023-02-28T07:10:03.798Z,5.90
2023-02-28T07:12:30.429Z,5.89
2023-02-28T07:14:59.313Z,5.88
2023-02-28T07:17:26.020Z,5.89
2023-02-28T07:19:52.680Z,5.89
2023-02-28T07:22:19.290Z,5.91
2023-02-28T07:24:45.980Z,5.94
2023-02-28T07:27:12.630Z,5.93
2023-02-28T07:29:39.343Z,5.91
2023-02-28T07:32:06.042Z,5.87
2023-02-28T07:34:32.661Z,5.84
2023-02-28T07:36:59.357Z,5.82
2023-02-28T07:39:26.034Z,5.81
2023-02-28T07:41:53.841Z,5.77
2023-02-28T07:44:21.639Z,5.77
2023-02-28T07:46:48.758Z,5.75
2023-02-28T07:49:15.499Z,5.76
2023-02-28T07:51:42.686Z,5.75
2023-02-28T07:54:09.310Z,5.76
2023-02-28T07:56:36.063Z,5.78
2023-02-28T07:59:02.803Z,5.79
2023-02-28T08:01:30.010Z,5.83
2023-02-28T08:03:58.060Z,5.82
2023-02-28T08:06:26.702Z,5.81
2023-02-28T08:08:54.250Z,5.80
2023-02-28T08:11:20.861Z,5.81
2023-02-28T08:13:47.625Z,5.81
2023-02-28T08:16:23.062Z,5.83
2023-02-28T08:18:54.107Z,5.84
2023-02-28T08:21:21.698Z,5.87
2023-02-28T08:23:52.443Z,5.91
2023-02-28T08:26:19.442Z,5.94
2023-02-28T08:28:46.858Z,5.97
2023-02-28T08:31:16.030Z,6.01
2023-02-28T08:33:43.348Z,6.05
2023-02-28T08:36:10.587Z,6.10
2023-02-28T08:38:37.991Z,6.15
2023-02-28T08:41:10.265Z,6.21
2023-02-28T08:43:37.355Z,6.25
2023-02-28T08:46:04.981Z,6.28
2023-02-28T08:48:34.472Z,6.32
2023-02-28T08:51:07.636Z,6.40
2023-02-28T08:53:35.047Z,6.45
2023-02-28T08:56:06.398Z,6.50
2023-02-28T08:58:33.188Z,6.52
2023-02-28T09:01:01.710Z,6.57
2023-02-28T09:03:28.338Z,6.60
2023-02-28T09:06:00.309Z,6.61
2023-02-28T09:08:29.580Z,6.59
2023-02-28T09:10:58.135Z,6.60
2023-02-28T09:13:26.557Z,6.61
2023-02-28T09:15:54.178Z,6.61
2023-02-28T09:18:21.538Z,6.61
2023-02-28T09:20:48.165Z,6.63
2023-02-28T09:23:15.169Z,6.63
2023-02-28T09:25:48.607Z,6.63
2023-02-28T09:28:18.315Z,6.65
2023-02-28T09:30:48.818Z,6.70
2023-02-28T09:33:17.211Z,6.76
2023-02-28T09:35:44.410Z,6.81
2023-02-28T09:38:11.669Z,6.86
2023-02-28T09:40:48.223Z,6.93
2023-02-28T09:43:18.640Z,7.03
2023-02-28T09:45:51.109Z,7.15
2023-02-28T09:48:26.288Z,7.28
2023-02-28T09:51:00.425Z,7.44
2023-02-28T09:53:28.296Z,7.55
2023-02-28T09:56:12.512Z,7.64
2023-02-28T09:58:42.961Z,7.71
2023-02-28T10:01:29.040Z,7.85
2023-02-28T10:04:04.687Z,7.94
2023-02-28T10:06:37.707Z,7.98
2023-02-28T10:09:15.267Z,7.92
2023-02-28T10:11:43.891Z,7.83
2023-02-28T10:14:23.828Z,7.80
2023-02-28T10:16:56.623Z,7.76
2023-02-28T10:19:35.815Z,7.68
2023-02-28T10:22:11.762Z,7.66
2023-02-28T10:24:47.494Z,7.63
2023-02-28T10:27:24.349Z,7.68
2023-02-28T10:29:56.922Z,7.67
2023-02-28T10:32:35.404Z,7.63
2023-02-28T10:35:19.568Z,7.74
2023-02-28T10:37:49.351Z,7.91
2023-02-28T10:40:18.845Z,8.11
2023-02-28T10:43:06.623Z,8.23
2023-02-28T10:45:37.128Z,8.25
2023-02-28T10:48:15.649Z,8.28
2023-02-28T10:50:53.233Z,8.34
2023-02-28T10:53:25.841Z,8.40
2023-02-28T10:56:00.144Z,8.38
2023-02-28T10:58:49.844Z,8.40
2023-02-28T11:01:20.786Z,8.41
2023-02-28T11:03:48.038Z,8.40
2023-02-28T11:06:20.211Z,8.42
2023-02-28T11:08:58.868Z,8.41
2023-02-28T11:11:29.173Z,8.43
2023-02-28T11:14:03.853Z,8.44
2023-02-28T11:16:38.929Z,8.52
2023-02-28T11:19:17.739Z,8.56
2023-02-28T11:21:54.371Z,8.50
2023-02-28T11:24:32.161Z,8.43
2023-02-28T11:26:59.034Z,8.45
2023-02-28T11:29:31.438Z,8.53
2023-02-28T11:32:15.286Z,8.49
2023-02-28T11:34:43.126Z,8.45
2023-02-28T11:37:20.871Z,8.37
2023-02-28T11:39:47.707Z,8.20
2023-02-28T11:42:46.721Z,8.02
2023-02-28T11:45:51.634Z,7.91
2023-02-28T11:48:28.348Z,7.84
2023-02-28T11:51:03.972Z,7.79
2023-02-28T11:53:59.225Z,7.74
2023-02-28T11:56:38.597Z,7.73
2023-02-28T11:59:33.536Z,7.85
2023-02-28T12:02:06.490Z,8.04
2023-02-28T12:05:07.144Z,8.18
2023-02-28T12:08:04.687Z,8.29
2023-02-28T12:10:38.485Z,8.40
2023-02-28T12:13:20.778Z,8.40
2023-02-28T12:16:32.532Z,8.42
2023-02-28T12:19:14.060Z,8.43
2023-02-28T12:22:09.877Z,8.45
2023-02-28T12:24:51.470Z,8.55
2023-02-28T12:27:22.863Z,8.58
2023-02-28T12:30:22.697Z,8.59
2023-02-28T12:33:05.504Z,8.55
2023-02-28T12:35:39.733Z,8.46
2023-02-28T12:38:13.973Z,8.35
2023-02-28T12:41:03.122Z,8.27
2023-02-28T12:43:38.699Z,8.24
2023-02-28T12:46:28.466Z,8.27
2023-02-28T12:48:59.546Z,8.33
2023-02-28T12:51:28.256Z,8.44
2023-02-28T12:54:08.409Z,8.52
2023-02-28T12:56:45.640Z,8.45
2023-02-28T12:59:22.045Z,8.27
2023-02-28T13:01:51.756Z,8.13
2023-02-28T13:04:37.603Z,8.02
2023-02-28T13:07:13.403Z,7.98
2023-02-28T13:09:41.205Z,7.92
2023-02-28T13:12:16.337Z,7.94
2023-02-28T13:14:43.303Z,7.93
2023-02-28T13:17:13.044Z,7.90
2023-02-28T13:19:46.709Z,7.87
2023-02-28T13:22:45.220Z,7.80
2023-02-28T13:25:23.816Z,7.80
2023-02-28T13:27:58.150Z,7.78
2023-02-28T13:30:56.888Z,7.67
2023-02-28T13:33:32.016Z,7.62
2023-02-28T13:36:10.493Z,7.57
2023-02-28T13:38:46.329Z,7.58
2023-02-28T13:41:32.201Z,7.54
2023-02-28T13:44:12.649Z,7.51
2023-02-28T13:46:48.629Z,7.47
2023-02-28T13:49:25.882Z,7.45
2023-02-28T13:52:07.733Z,7.47
2023-02-28T13:54:34.491Z,7.51
2023-02-28T13:57:21.740Z,7.50
2023-02-28T14:00:18.066Z,7.53
2023-02-28T14:02:53.925Z,7.57
2023-02-28T14:05:26.638Z,7.64
2023-02-28T14:07:58.305Z,7.70
2023-02-28T14:10:40.408Z,7.80
2023-02-28T14:13:28.686Z,7.79
2023-02-28T14:16:00.059Z,7.75
2023-02-28T14:18:38.870Z,7.75
2023-02-28T14:21:14.073Z,7.72
2023-02-28T14:24:14.527Z,7.76
2023-02-28T14:26:46.795Z,7.79
2023-02-28T14:29:44.485Z,7.79
2023-02-28T14:32:35.230Z,7.74
2023-02-28T14:35:34.160Z,7.71
2023-02-28T14:38:04.666Z,7.69
2023-02-28T14:40:34.493Z,7.69
2023-02-28T14:43:05.003Z,7.70
2023-02-28T14:45:34.154Z,7.69
2023-02-28T14:48:03.603Z,7.68
2023-02-28T14:50:37.354Z,7.70
2023-02-28T14:53:07.291Z,7.69
2023-02-28T14:55:36.719Z,7.67
2023-02-28T14:58:22.954Z,7.65
2023-02-28T15:00:52.295Z,7.59
2023-02-28T15:03:42.966Z,7.56
2023-02-28T15:06:18.834Z,7.51
2023-02-28T15:08:46.484Z,7.46
2023-02-28T15:11:25.309Z,7.43
2023-02-28T15:13:57.427Z,7.41
2023-02-28T15:16:32.880Z,7.42
2023-02-28T15:19:08.163Z,7.40
2023-02-28T15:21:42.797Z,7.34
2023-02-28T15:24:25.611Z,7.33
2023-02-28T15:26:58.857Z,7.30
2023-02-28T15:29:29.876Z,7.31
2023-02-28T15:32:01.193Z,7.31
2023-02-28T15:34:43.110Z,7.29
2023-02-28T15:37:33.327Z,7.29
2023-02-28T15:40:28.903Z,7.32
2023-02-28T15:43:23.675Z,7.32
2023-02-28T15:45:53.863Z,7.34
2023-02-28T15:48:23.583Z,7.32
2023-02-28T15:50:56.556Z,7.29
2023-02-28T15:53:27.607Z,7.26
2023-02-28T15:56:02.311Z,7.24
2023-02-28T15:58:29.716Z,7.22
2023-02-28T16:01:09.090Z,7.18
2023-02-28T16:03:46.477Z,7.13
2023-02-28T16:06:36.110Z,7.12
2023-02-28T16:09:04.240Z,7.11
2023-02-28T16:11:42.034Z,7.04
2023-02-28T16:14:19.779Z,7.00
2023-02-28T16:16:50.353Z,6.98
2023-02-28T16:19:17.818Z,6.98
2023-02-28T16:21:44.592Z,6.97
2023-02-28T16:24:11.302Z,6.95
2023-02-28T16:26:42.365Z,6.96
2023-02-28T16:29:16.755Z,6.98
2023-02-28T16:31:43.457Z,6.96
2023-02-28T16:34:10.123Z,6.94
2023-02-28T16:36:36.770Z,6.93
2023-02-28T16:39:03.930Z,6.95
2023-02-28T16:41:31.107Z,6.91
2023-02-28T16:44:01.230Z,6.89
2023-02-28T16:46:46.021Z,6.89
2023-02-28T16:49:14.111Z,6.88
2023-02-28T16:51:42.296Z,6.86
2023-02-28T16:54:08.962Z,6.86
2023-02-28T16:56:35.945Z,6.84
2023-02-28T16:59:03.467Z,6.83
2023-02-28T17:01:30.818Z,6.82
2023-02-28T17:03:57.858Z,6.85
2023-02-28T17:06:30.150Z,6.84
2023-02-28T17:08:58.922Z,6.81
2023-02-28T17:11:26.368Z,6.80
2023-02-28T17:13:54.991Z,6.81
2023-02-28T17:16:30.591Z,6.79
2023-02-28T17:19:05.699Z,6.80
2023-02-28T17:21:35.171Z,6.77
2023-02-28T17:24:02.037Z,6.75
2023-02-28T17:26:29.357Z,6.74
2023-02-28T17:28:58.023Z,6.74
2023-02-28T17:31:26.191Z,6.74
2023-02-28T17:33:53.559Z,6.69
2023-02-28T17:36:26.676Z,6.68
2023-02-28T17:38:56.158Z,6.67
2023-02-28T17:41:23.219Z,6.65
2023-02-28T17:43:51.374Z,6.64
2023-02-28T17:46:21.362Z,6.63
2023-02-28T17:48:52.336Z,6.62
2023-02-28T17:51:21.222Z,6.62
2023-02-28T17:53:47.887Z,6.63
2023-02-28T17:56:18.465Z,6.62
2023-02-28T17:58:45.097Z,6.61
2023-02-28T18:01:13.020Z,6.60
2023-02-28T18:03:40.186Z,6.58
2023-02-28T18:06:07.688Z,6.57
2023-02-28T18:08:36.338Z,6.57
2023-02-28T18:11:03.221Z,6.59
2023-02-28T18:13:29.935Z,6.59
2023-02-28T18:15:56.577Z,6.56
2023-02-28T18:18:24.045Z,6.57
2023-02-28T18:20:50.933Z,6.56
2023-02-28T18:23:19.180Z,6.58
2023-02-28T18:25:45.984Z,6.57
2023-02-28T18:28:13.498Z,6.58
2023-02-28T18:30:40.178Z,6.58
2023-02-28T18:33:06.878Z,6.58
2023-02-28T18:35:36.234Z,6.55
2023-02-28T18:38:02.905Z,6.54
2023-02-28T18:40:29.542Z,6.55
2023-02-28T18:42:56.174Z,6.55
2023-02-28T18:45:22.812Z,6.53
2023-02-28T18:47:49.791Z,6.53
2023-02-28T18:50:16.894Z,6.55
2023-02-28T18:52:43.532Z,6.54
2023-02-28T18:55:12.491Z,6.54
2023-02-28T18:57:39.235Z,6.54
2023-02-28T19:00:09.581Z,6.57
2023-02-28T19:09:25.217Z,6.50
2023-02-28T19:11:51.954Z,6.50
2023-02-28T19:14:18.837Z,6.51
2023-02-28T19:16:47.295Z,6.50
2023-02-28T19:19:14.069Z,6.50
2023-02-28T19:21:41.757Z,6.51
2023-02-28T19:24:08.452Z,6.50
2023-02-28T19:26:35.164Z,6.49
2023-02-28T19:29:05.533Z,6.48
2023-02-28T19:31:33.664Z,6.44
2023-02-28T19:34:01.474Z,6.42
2023-02-28T19:36:28.569Z,6.42
2023-02-28T19:38:55.202Z,6.42
2023-02-28T19:41:21.938Z,6.40
2023-02-28T19:43:48.803Z,6.38
2023-02-28T19:46:15.625Z,6.35
2023-02-28T19:48:44.721Z,6.34
2023-02-28T19:51:13.574Z,6.33
2023-02-28T19:53:41.562Z,6.33
2023-02-28T19:56:09.242Z,6.31
2023-02-28T19:58:36.225Z,6.28
2023-02-28T20:01:17.485Z,6.27
2023-02-28T20:03:49.456Z,6.29
2023-02-28T20:06:16.121Z,6.27
2023-02-28T20:08:43.322Z,6.25
2023-02-28T20:11:13.293Z,6.25
2023-02-28T20:13:40.085Z,6.24
2023-02-28T20:16:10.243Z,6.25
2023-02-28T20:18:38.437Z,6.26
2023-02-28T20:21:07.569Z,6.25
2023-02-28T20:23:34.340Z,6.28
2023-02-28T20:26:01.162Z,6.29
2023-02-28T20:28:28.111Z,6.28
2023-02-28T20:30:54.891Z,6.26
2023-02-28T20:33:21.926Z,6.26
2023-02-28T20:35:49.673Z,6.27
2023-02-28T20:38:16.338Z,6.28
2023-02-28T20:40:43.060Z,6.30
2023-02-28T20:43:09.821Z,6.30
2023-02-28T20:45:36.474Z,6.30
2023-02-28T20:48:03.369Z,6.30
2023-02-28T20:50:30.642Z,6.31
2023-02-28T20:52:57.365Z,6.30
2023-02-28T20:55:23.938Z,6.30
2023-02-28T20:57:50.829Z,6.30
2023-02-28T21:00:20.578Z,6.29
2023-02-28T21:02:47.543Z,6.29
2023-02-28T21:05:15.426Z,6.28
2023-02-28T21:07:42.330Z,6.29
2023-02-28T21:10:10.033Z,6.28
2023-02-28T21:12:36.671Z,6.30
2023-02-28T21:15:03.590Z,6.28
2023-02-28T21:17:30.204Z,6.27
2023-02-28T21:19:56.789Z,6.30
2023-02-28T21:22:23.431Z,6.31
2023-02-28T21:24:50.049Z,6.30
2023-02-28T21:27:16.703Z,6.29
2023-02-28T21:29:43.615Z,6.30
2023-02-28T21:32:10.323Z,6.30
2023-02-28T21:34:36.977Z,6.29
2023-02-28T21:37:03.858Z,6.28
2023-02-28T21:39:30.885Z,6.27
2023-02-28T21:42:03.514Z,6.26
2023-02-28T21:44:31.998Z,6.24
2023-02-28T21:47:01.051Z,6.24
2023-02-28T21:49:28.820Z,6.23
2023-02-28T21:51:55.521Z,6.24
2023-02-28T21:54:22.415Z,6.25
2023-02-28T21:56:50.844Z,6.22
2023-02-28T21:59:18.889Z,6.22
2023-02-28T22:01:46.070Z,6.22
2023-02-28T22:04:21.107Z,6.21
2023-02-28T22:06:57.314Z,6.22
2023-02-28T22:09:24.092Z,6.21
2023-02-28T22:11:50.837Z,6.20
2023-02-28T22:14:17.812Z,6.20
2023-02-28T22:16:51.699Z,6.20
2023-02-28T22:19:19.742Z,6.20
2023-02-28T22:21:47.556Z,6.21
2023-02-28T22:24:15.813Z,6.20
2023-02-28T22:26:42.503Z,6.22
2023-02-28T22:29:09.177Z,6.21
2023-02-28T22:31:36.309Z,6.21
2023-02-28T22:34:08.832Z,6.21
2023-02-28T22:36:35.886Z,6.22
2023-02-28T22:39:04.157Z,6.24
2023-02-28T22:41:31.033Z,6.22
2023-02-28T22:44:00.413Z,6.19
2023-02-28T22:46:29.923Z,6.16
2023-02-28T22:48:59.040Z,6.14
2023-02-28T22:51:27.706Z,6.10
2023-02-28T22:53:55.846Z,6.08
2023-02-28T22:56:24.890Z,6.04
2023-02-28T22:58:57.177Z,6.02
2023-02-28T23:01:24.928Z,5.98
2023-02-28T23:03:52.119Z,5.96
2023-02-28T23:06:24.632Z,5.96
2023-02-28T23:08:53.748Z,5.99
2023-02-28T23:11:24.072Z,5.96
2023-02-28T23:14:00.566Z,5.94
2023-02-28T23:16:46.432Z,5.95
2023-02-28T23:19:16.885Z,5.93
2023-02-28T23:21:44.513Z,5.94
2023-02-28T23:24:12.603Z,5.91
2023-02-28T23:26:43.798Z,5.92
2023-02-28T23:29:11.998Z,5.93
2023-02-28T23:31:39.717Z,5.96
2023-02-28T23:34:07.566Z,5.96
2023-02-28T23:36:34.332Z,5.95
2023-02-28T23:39:01.164Z,5.97
2023-02-28T23:41:27.794Z,5.95
2023-02-28T23:43:54.811Z,5.97
2023-02-28T23:46:21.936Z,5.97
2023-02-28T23:48:48.554Z,5.95
2023-02-28T23:51:18.007Z,5.95
2023-02-28T23:53:47.421Z,5.96
2023-02-28T23:56:16.806Z,5.99
2023-02-28T23:58:44.645Z,6.01
